createdAt,value
2018-12-31T00:01:52.545Z,9.50
2018-12-31T00:04:41.792Z,10.57
2018-12-31T00:07:23.884Z,10.63
2018-12-31T00:10:13.224Z,10.30
2018-12-31T00:12:55.740Z,10.55
2018-12-31T00:18:47.274Z,10.70
2018-12-31T00:21:36.862Z,10.83
2018-12-31T00:24:20.338Z,10.87
2018-12-31T00:27:11.545Z,11.63
2018-12-31T00:29:54.814Z,11.27
2018-12-31T00:32:44.483Z,10.90
2018-12-31T00:35:15.246Z,11.73
2018-12-31T00:38:04.797Z,11.53
2018-12-31T00:40:47.110Z,12.30
2018-12-31T00:43:36.731Z,12.63
2018-12-31T00:46:19.679Z,13.75
2018-12-31T00:49:09.080Z,14.13
2018-12-31T00:51:50.736Z,13.28
2018-12-31T00:54:40.643Z,13.30
2018-12-31T00:57:23.139Z,13.30
2018-12-31T01:00:13.710Z,13.83
2018-12-31T01:03:03.340Z,14.73
2018-12-31T01:05:45.543Z,16.07
2018-12-31T01:08:35.253Z,15.23
2018-12-31T01:11:18.186Z,14.77
2018-12-31T01:14:07.820Z,15.07
2018-12-31T01:16:50.030Z,16.67
2018-12-31T01:22:26.965Z,17.07
2018-12-31T01:25:16.703Z,16.77
2018-12-31T01:28:06.306Z,17.83
2018-12-31T01:30:55.941Z,18.37
2018-12-31T01:33:40.830Z,17.43
2018-12-31T01:36:30.804Z,18.92
2018-12-31T01:39:13.709Z,19.30
2018-12-31T01:42:03.402Z,19.50
2018-12-31T01:44:46.008Z,20.47
2018-12-31T01:50:24.157Z,20.30
2018-12-31T01:53:14.075Z,20.40
2018-12-31T01:56:05.735Z,19.57
2018-12-31T01:58:58.323Z,19.92
2018-12-31T02:01:40.301Z,18.00
2018-12-31T02:07:06.965Z,18.00
2018-12-31T02:09:56.623Z,17.93
2018-12-31T02:12:46.524Z,18.35
2018-12-31T02:15:28.286Z,19.43
2018-12-31T02:18:19.674Z,19.13
2018-12-31T02:21:01.916Z,18.00
2018-12-31T02:23:51.836Z,17.80
2018-12-31T02:26:34.231Z,18.07
2018-12-31T02:29:23.894Z,16.83
2018-12-31T02:32:06.588Z,17.30
2018-12-31T02:34:57.046Z,17.98
2018-12-31T02:37:40.623Z,18.57
2018-12-31T02:40:22.824Z,19.42
2018-12-31T02:43:12.390Z,20.30
2018-12-31T02:48:57.726Z,19.30
2018-12-31T02:51:40.093Z,20.33
2018-12-31T02:54:31.042Z,19.40
2018-12-31T02:57:20.908Z,19.73
2018-12-31T03:00:05.407Z,21.03
2018-12-31T03:02:57.065Z,20.67
2018-12-31T03:05:39.799Z,20.10
2018-12-31T03:08:22.398Z,20.83
2018-12-31T03:11:12.006Z,21.20
2018-12-31T03:13:54.766Z,21.27
2018-12-31T03:16:44.606Z,22.23
2018-12-31T03:19:30.999Z,22.25
2018-12-31T03:22:20.628Z,22.40
2018-12-31T03:25:03.523Z,22.50
2018-12-31T03:27:53.191Z,21.57
2018-12-31T03:30:36.955Z,21.73
2018-12-31T03:36:15.643Z,22.60
2018-12-31T03:39:28.295Z,22.33
2018-12-31T03:42:10.882Z,21.73
2018-12-31T03:45:00.592Z,22.70
2018-12-31T03:47:43.336Z,20.97
2018-12-31T03:50:32.979Z,22.73
2018-12-31T03:53:15.769Z,22.23
2018-12-31T03:56:05.372Z,23.50
2018-12-31T03:58:50.105Z,23.30
2018-12-31T04:01:39.648Z,22.03
2018-12-31T04:04:22.333Z,22.73
2018-12-31T04:07:14.023Z,23.23
2018-12-31T04:09:56.405Z,22.87
2018-12-31T04:12:46.076Z,22.17
2018-12-31T04:15:28.334Z,22.97
2018-12-31T04:18:17.945Z,22.00
2018-12-31T04:21:00.293Z,22.30
2018-12-31T04:26:51.628Z,22.37
2018-12-31T04:29:41.260Z,21.67
2018-12-31T04:32:25.478Z,28.75
2018-12-31T04:35:35.810Z,21.55
2018-12-31T04:38:18.128Z,20.30
2018-12-31T04:41:02.959Z,18.93
2018-12-31T04:43:52.592Z,19.35
2018-12-31T04:46:36.953Z,20.00
2018-12-31T04:52:14.292Z,18.50
2018-12-31T04:55:04.040Z,19.47
2018-12-31T04:57:46.459Z,18.53
2018-12-31T05:00:36.153Z,17.85
2018-12-31T05:03:18.760Z,18.63
2018-12-31T05:05:49.345Z,16.95
2018-12-31T05:08:39.117Z,18.10
2018-12-31T05:11:23.919Z,18.20
2018-12-31T05:14:13.836Z,16.52
2018-12-31T05:16:56.452Z,18.35
2018-12-31T05:19:47.784Z,18.23
2018-12-31T05:25:28.672Z,18.92
2018-12-31T05:31:10.742Z,18.02
2018-12-31T05:34:00.424Z,18.07
2018-12-31T05:36:43.250Z,18.27
2018-12-31T05:39:32.914Z,17.93
2018-12-31T05:42:17.833Z,15.87
2018-12-31T05:45:07.523Z,15.83
2018-12-31T05:47:50.275Z,16.23
2018-12-31T05:50:59.350Z,15.93
2018-12-31T05:53:41.134Z,16.13
2018-12-31T05:56:30.865Z,15.13
2018-12-31T05:59:13.567Z,14.90
2018-12-31T06:02:03.335Z,14.77
2018-12-31T06:04:45.120Z,13.13
2018-12-31T06:07:34.749Z,14.63
2018-12-31T06:10:16.606Z,15.50
2018-12-31T06:12:59.696Z,14.93
2018-12-31T06:15:49.329Z,14.37
2018-12-31T06:18:31.679Z,15.03
2018-12-31T06:21:21.179Z,14.37
2018-12-31T06:24:03.805Z,14.80
2018-12-31T06:29:54.619Z,15.00
2018-12-31T06:32:24.969Z,13.77
2018-12-31T06:35:14.649Z,13.90
2018-12-31T06:37:57.330Z,14.10
2018-12-31T06:40:47.034Z,14.25
2018-12-31T06:43:29.276Z,13.63
2018-12-31T06:46:18.902Z,13.10
2018-12-31T06:49:01.571Z,12.57
2018-12-31T06:51:50.859Z,14.43
2018-12-31T06:54:32.832Z,12.77
2018-12-31T06:57:22.518Z,13.45
2018-12-31T07:00:05.244Z,13.10
2018-12-31T07:02:56.630Z,13.40
2018-12-31T07:05:39.042Z,13.07
2018-12-31T07:08:28.926Z,13.13
2018-12-31T07:11:11.202Z,14.00
2018-12-31T07:14:03.050Z,12.75
2018-12-31T07:16:46.981Z,13.00
2018-12-31T07:22:34.777Z,13.43
2018-12-31T07:25:16.416Z,13.73
2018-12-31T07:28:05.748Z,13.05
2018-12-31T07:30:47.657Z,12.63
2018-12-31T07:33:50.917Z,13.07
2018-12-31T07:36:20.548Z,13.38
2018-12-31T07:39:23.705Z,13.07
2018-12-31T07:41:54.411Z,13.25
2018-12-31T07:44:36.427Z,12.93
2018-12-31T07:47:25.954Z,13.53
2018-12-31T07:50:15.595Z,13.90
2018-12-31T07:55:59.831Z,13.90
2018-12-31T07:58:43.614Z,13.93
2018-12-31T08:04:20.970Z,13.93
2018-12-31T08:07:10.350Z,13.67
2018-12-31T08:09:52.866Z,13.20
2018-12-31T08:12:42.401Z,14.07
2018-12-31T08:15:24.252Z,14.70
2018-12-31T08:18:27.752Z,14.10
2018-12-31T08:20:57.463Z,14.37
2018-12-31T08:23:39.342Z,13.77
2018-12-31T08:26:29.062Z,15.43
2018-12-31T08:29:10.944Z,14.53
2018-12-31T08:32:00.299Z,14.53
2018-12-31T08:34:43.197Z,15.20
2018-12-31T08:37:32.636Z,15.50
2018-12-31T08:40:14.806Z,15.38
2018-12-31T08:46:05.933Z,16.47
2018-12-31T08:48:48.255Z,14.47
2018-12-31T08:54:39.354Z,16.10
2018-12-31T08:57:30.911Z,16.37
2018-12-31T09:00:12.786Z,16.17
2018-12-31T09:06:05.185Z,16.87
2018-12-31T09:08:54.559Z,16.07
2018-12-31T09:11:37.352Z,16.93
2018-12-31T09:17:27.303Z,16.57
2018-12-31T09:20:16.556Z,17.37
2018-12-31T09:25:56.530Z,15.93
2018-12-31T09:28:45.935Z,15.43
2018-12-31T09:31:16.255Z,16.67
2018-12-31T09:34:05.942Z,14.87
2018-12-31T09:36:55.606Z,14.10
2018-12-31T09:39:37.652Z,13.97
2018-12-31T09:42:27.328Z,12.63
2018-12-31T09:45:09.362Z,11.73
2018-12-31T09:50:47.446Z,9.20
2018-12-31T09:53:36.319Z,8.93
2018-12-31T09:56:06.597Z,7.90
2018-12-31T09:58:56.001Z,7.23
2018-12-31T10:01:45.237Z,6.70
2018-12-31T10:04:27.856Z,6.03
2018-12-31T10:07:17.137Z,5.60
2018-12-31T10:09:59.239Z,4.47
2018-12-31T10:12:48.923Z,5.47
2018-12-31T10:15:30.782Z,5.30
2018-12-31T10:21:21.860Z,5.30
2018-12-31T10:26:43.467Z,6.00
2018-12-31T10:29:36.167Z,5.70
2018-12-31T10:32:18.934Z,6.53
2018-12-31T10:38:10.136Z,7.58
2018-12-31T10:40:59.512Z,7.20
2018-12-31T10:43:42.399Z,7.58
2018-12-31T10:46:24.524Z,7.33
2018-12-31T10:49:13.993Z,7.80
2018-12-31T10:51:56.595Z,8.87
2018-12-31T10:57:57.240Z,8.77
2018-12-31T11:00:26.746Z,9.50
2018-12-31T11:03:16.234Z,9.23
2018-12-31T11:05:46.602Z,10.57
2018-12-31T11:08:38.582Z,9.27
2018-12-31T11:11:42.014Z,10.48
2018-12-31T11:14:15.684Z,10.53
2018-12-31T11:20:07.530Z,10.13
2018-12-31T11:25:58.750Z,9.90
2018-12-31T11:28:48.120Z,10.73
2018-12-31T11:31:31.808Z,10.27
2018-12-31T11:34:21.520Z,10.70
2018-12-31T11:36:52.342Z,11.10
2018-12-31T11:42:49.341Z,11.48
2018-12-31T11:45:37.197Z,11.07
2018-12-31T11:48:21.259Z,11.37
2018-12-31T11:51:25.640Z,10.68
2018-12-31T11:53:54.479Z,11.87
2018-12-31T11:56:43.890Z,12.73
2018-12-31T11:59:26.157Z,11.53
2018-12-31T12:05:20.214Z,13.00
2018-12-31T12:08:23.421Z,12.07
2018-12-31T12:10:53.489Z,12.23
2018-12-31T12:13:42.765Z,11.93
2018-12-31T12:16:25.661Z,11.50
2018-12-31T12:19:15.355Z,9.93
2018-12-31T12:21:57.607Z,10.40
2018-12-31T12:27:37.014Z,10.47
2018-12-31T12:33:15.499Z,10.18
2018-12-31T12:36:05.167Z,10.77
2018-12-31T12:38:47.045Z,10.23
2018-12-31T12:41:36.411Z,14.55
2018-12-31T12:44:18.411Z,12.50
2018-12-31T12:47:00.390Z,10.87
2018-12-31T12:52:51.226Z,11.03
2018-12-31T12:55:40.870Z,11.60
2018-12-31T12:58:24.818Z,11.37
2018-12-31T13:01:14.428Z,11.50
2018-12-31T13:03:56.910Z,11.88
2018-12-31T13:09:47.688Z,11.93
2018-12-31T13:12:37.310Z,12.57
2018-12-31T13:18:15.522Z,13.47
2018-12-31T13:21:05.193Z,13.80
2018-12-31T13:23:48.285Z,12.90
2018-12-31T13:29:25.530Z,13.90
2018-12-31T13:32:15.173Z,13.33
2018-12-31T13:34:59.111Z,12.45
2018-12-31T13:37:48.737Z,13.57
2018-12-31T13:40:31.709Z,13.23
2018-12-31T13:46:15.361Z,12.57
2018-12-31T13:48:57.933Z,12.07
2018-12-31T13:54:35.630Z,14.43
2018-12-31T14:00:12.278Z,14.83
2018-12-31T14:05:49.540Z,15.77
2018-12-31T14:08:39.230Z,15.37
2018-12-31T14:11:21.396Z,17.17
2018-12-31T14:14:10.962Z,16.90
2018-12-31T14:16:52.971Z,17.23
2018-12-31T14:19:42.675Z,16.33
2018-12-31T14:22:24.701Z,18.57
2018-12-31T14:28:02.894Z,18.97
2018-12-31T14:30:52.239Z,18.47
2018-12-31T14:33:34.095Z,18.60
2018-12-31T14:36:04.410Z,17.70
2018-12-31T14:38:53.839Z,19.03
2018-12-31T14:44:31.202Z,18.37
2018-12-31T14:47:20.579Z,17.93
2018-12-31T14:50:02.476Z,18.23
2018-12-31T14:52:52.157Z,16.77
2018-12-31T14:55:33.823Z,16.70
2018-12-31T14:58:23.486Z,16.47
2018-12-31T15:01:05.514Z,16.17
2018-12-31T15:06:43.481Z,15.20
2018-12-31T15:09:33.187Z,15.40
2018-12-31T15:12:03.469Z,15.77
2018-12-31T15:14:53.106Z,14.50
2018-12-31T15:17:56.445Z,14.27
2018-12-31T15:23:01.453Z,17.37
2018-12-31T15:25:31.747Z,17.23
2018-12-31T15:28:42.669Z,15.30
2018-12-31T15:31:25.025Z,13.30
2018-12-31T15:34:14.710Z,14.03
2018-12-31T15:36:56.286Z,13.80
2018-12-31T15:39:39.144Z,13.87
2018-12-31T15:42:28.522Z,12.57
2018-12-31T15:45:13.250Z,13.10
2018-12-31T15:48:02.661Z,12.03
2018-12-31T15:53:40.917Z,10.63
2018-12-31T15:59:25.574Z,14.28
2018-12-31T16:02:07.405Z,23.07
2018-12-31T16:04:56.950Z,12.67
2018-12-31T16:07:28.424Z,12.77
2018-12-31T16:10:19.870Z,33.10
2018-12-31T16:13:02.131Z,16.90
2018-12-31T16:15:51.799Z,15.17
2018-12-31T16:18:34.427Z,10.70
2018-12-31T16:21:23.950Z,11.20
2018-12-31T16:24:06.471Z,9.97
2018-12-31T16:30:15.057Z,9.88
2018-12-31T16:35:54.110Z,10.55
2018-12-31T16:38:43.459Z,9.03
2018-12-31T16:41:27.398Z,9.63
2018-12-31T16:44:18.873Z,10.93
2018-12-31T16:47:00.839Z,9.73
2018-12-31T16:49:44.347Z,10.17
2018-12-31T16:52:26.748Z,9.10
2018-12-31T16:55:16.416Z,9.13
2018-12-31T16:57:58.716Z,9.07
2018-12-31T17:03:39.763Z,11.13
2018-12-31T17:06:48.860Z,10.87
2018-12-31T17:09:30.983Z,11.63
2018-12-31T17:12:20.724Z,11.40
2018-12-31T17:15:02.653Z,11.27
2018-12-31T17:17:52.584Z,10.83
2018-12-31T17:20:35.377Z,13.00
2018-12-31T17:29:07.885Z,12.50
2018-12-31T17:34:58.249Z,13.37
2018-12-31T17:37:47.640Z,12.77
2018-12-31T17:40:30.454Z,16.42
2018-12-31T17:46:21.519Z,13.50
2018-12-31T17:49:05.671Z,13.50
2018-12-31T17:51:55.894Z,12.65
2018-12-31T17:54:40.313Z,15.13
2018-12-31T18:00:16.822Z,17.13
2018-12-31T18:05:54.492Z,12.77
2018-12-31T18:11:47.605Z,11.03
2018-12-31T18:14:17.804Z,9.75
2018-12-31T18:17:07.199Z,11.53
2018-12-31T18:19:56.507Z,11.45
2018-12-31T18:22:39.003Z,12.47
2018-12-31T18:25:28.364Z,11.83
2018-12-31T18:28:10.315Z,12.97
2018-12-31T18:31:00.118Z,11.37
2018-12-31T18:33:43.834Z,12.37
2018-12-31T18:36:33.415Z,11.10
2018-12-31T18:39:17.786Z,11.15
2018-12-31T18:44:56.389Z,10.97
2018-12-31T18:47:46.003Z,11.33
2018-12-31T18:50:27.998Z,10.58
2018-12-31T18:53:17.682Z,11.40
2018-12-31T18:56:09.360Z,13.57
2018-12-31T19:01:35.433Z,12.80
2018-12-31T19:04:26.225Z,11.85
2018-12-31T19:10:16.599Z,12.00
2018-12-31T19:12:46.807Z,14.20
2018-12-31T19:15:36.311Z,14.83
2018-12-31T19:18:07.712Z,13.87
2018-12-31T19:23:59.053Z,14.47
2018-12-31T19:26:40.828Z,29.03
2018-12-31T19:32:31.051Z,15.67
2018-12-31T19:35:20.566Z,16.00
2018-12-31T19:38:02.668Z,16.80
2018-12-31T19:40:52.330Z,17.32
2018-12-31T19:43:35.074Z,16.43
2018-12-31T19:46:24.461Z,16.33
2018-12-31T19:49:06.466Z,17.93
2018-12-31T19:51:36.781Z,18.70
2018-12-31T19:54:26.116Z,18.77
2018-12-31T19:56:56.429Z,18.30
2018-12-31T20:08:07.123Z,21.67
2018-12-31T20:10:57.988Z,24.50
2018-12-31T20:13:40.513Z,25.92
2018-12-31T20:16:30.185Z,23.70
2018-12-31T20:19:12.424Z,24.77
2018-12-31T20:22:02.557Z,23.95
2018-12-31T20:24:44.659Z,22.07
2018-12-31T20:27:34.483Z,20.73
2018-12-31T20:30:16.143Z,18.77
2018-12-31T20:33:24.351Z,16.67
2018-12-31T20:36:06.229Z,15.13
2018-12-31T20:38:55.850Z,14.53
2018-12-31T20:41:38.596Z,13.87
2018-12-31T20:44:08.880Z,14.83
2018-12-31T20:49:48.921Z,12.73
2018-12-31T20:52:57.772Z,12.43
2018-12-31T20:59:02.520Z,12.27
2018-12-31T21:01:44.716Z,12.70
2018-12-31T21:04:34.331Z,12.60
2018-12-31T21:07:16.850Z,12.23
2018-12-31T21:10:08.807Z,12.70
2018-12-31T21:12:51.300Z,11.80
2018-12-31T21:15:40.957Z,12.67
2018-12-31T21:18:25.141Z,12.97
2018-12-31T21:20:55.371Z,12.50
2018-12-31T21:26:40.507Z,12.10
2018-12-31T21:29:23.380Z,12.77
2018-12-31T21:35:00.506Z,15.57
2018-12-31T21:37:49.909Z,17.43
2018-12-31T21:40:39.285Z,18.10
2018-12-31T21:43:29.649Z,16.45
2018-12-31T21:46:12.071Z,22.80
2018-12-31T21:48:54.840Z,26.63
2018-12-31T21:51:44.462Z,23.87
2018-12-31T21:54:26.368Z,19.20
2018-12-31T21:57:16.008Z,24.03
2018-12-31T21:59:58.149Z,19.47
2018-12-31T22:05:50.692Z,21.17
2018-12-31T22:08:59.768Z,19.73
2018-12-31T22:11:30.136Z,17.62
2018-12-31T22:14:21.907Z,19.67
2018-12-31T22:20:12.248Z,20.80
2018-12-31T22:23:03.906Z,20.33
2018-12-31T22:25:46.738Z,22.87
2018-12-31T22:31:39.223Z,23.63
2018-12-31T22:37:10.795Z,22.58
2018-12-31T22:39:41.263Z,21.73
2018-12-31T22:42:50.300Z,22.57
2018-12-31T22:45:32.310Z,22.80
2018-12-31T22:48:22.241Z,24.43
2018-12-31T22:51:04.434Z,23.30
2018-12-31T22:53:35.116Z,23.07
2018-12-31T22:56:24.520Z,22.62
2018-12-31T22:59:33.057Z,22.67
2018-12-31T23:02:03.418Z,27.20
2018-12-31T23:04:53.128Z,66.37
2018-12-31T23:07:43.143Z,117.40
2018-12-31T23:10:25.961Z,150.63
2018-12-31T23:16:19.781Z,77.93
2018-12-31T23:19:09.473Z,59.20
2018-12-31T23:21:51.557Z,46.53
2018-12-31T23:24:40.977Z,57.20
2018-12-31T23:27:23.657Z,63.17
2018-12-31T23:30:13.352Z,51.18
2018-12-31T23:32:56.697Z,50.98
2018-12-31T23:35:46.357Z,47.23
2018-12-31T23:38:28.417Z,42.63
2018-12-31T23:41:17.769Z,35.45
2018-12-31T23:43:59.886Z,36.13
2018-12-31T23:46:49.364Z,38.43
2018-12-31T23:49:31.472Z,31.27
2018-12-31T23:55:08.679Z,30.50
2018-12-31T23:58:00.144Z,28.97
